createdAt,value
2016-05-16T00:00:03.193Z,0
2016-05-16T00:01:03.165Z,0
2016-05-16T00:02:03.137Z,0
2016-05-16T00:03:03.279Z,0
2016-05-16T00:04:03.111Z,0
2016-05-16T00:05:04.019Z,0
2016-05-16T00:06:03.226Z,0
2016-05-16T00:07:03.212Z,0
2016-05-16T00:08:03.184Z,0
2016-05-16T00:09:03.170Z,0
2016-05-16T00:10:03.173Z,0
2016-05-16T00:11:03.144Z,0
2016-05-16T00:12:03.132Z,0
2016-05-16T00:13:02.964Z,0
2016-05-16T00:14:03.091Z,0
2016-05-16T00:15:02.922Z,0
2016-05-16T00:16:03.049Z,0
2016-05-16T00:17:03.036Z,0
2016-05-16T00:18:02.866Z,0
2016-05-16T00:19:02.994Z,0
2016-05-16T00:20:03.060Z,0
2016-05-16T00:21:02.953Z,0
2016-05-16T00:22:02.940Z,0
2016-05-16T00:23:02.943Z,0
2016-05-16T00:24:02.930Z,0
2016-05-16T00:25:02.902Z,0
2016-05-16T00:26:02.873Z,0
2016-05-16T00:27:02.857Z,0
2016-05-16T00:28:02.876Z,0
2016-05-16T00:29:02.816Z,0
2016-05-16T00:30:02.787Z,0
2016-05-16T00:31:02.790Z,0
2016-05-16T00:32:02.604Z,0
2016-05-16T00:33:02.749Z,0
2016-05-16T00:34:02.735Z,0
2016-05-16T00:35:02.567Z,0
2016-05-16T00:36:02.694Z,0
2016-05-16T00:37:02.697Z,0
2016-05-16T00:38:02.496Z,0
2016-05-16T00:39:02.498Z,0
2016-05-16T00:40:02.611Z,0
2016-05-16T00:41:02.614Z,0
2016-05-16T00:42:02.601Z,0
2016-05-16T00:43:02.259Z,0
2016-05-16T00:44:02.575Z,0
2016-05-16T00:45:02.546Z,0
2016-05-16T00:46:02.517Z,0
2016-05-16T00:47:02.505Z,0
2016-05-16T00:48:02.680Z,0
2016-05-16T00:49:02.682Z,0
2016-05-16T00:50:02.310Z,0
2016-05-16T00:51:02.422Z,0
2016-05-16T00:52:02.408Z,0
2016-05-16T00:53:02.396Z,0
2016-05-16T00:54:02.383Z,0
2016-05-16T00:55:02.339Z,0
2016-05-16T00:56:02.357Z,0
2016-05-16T00:57:02.329Z,0
2016-05-16T00:58:02.316Z,0
2016-05-16T00:59:02.132Z,0
2016-05-16T01:00:02.148Z,0
2016-05-16T01:01:02.245Z,0
2016-05-16T01:02:02.232Z,0
2016-05-16T01:03:02.079Z,0
2016-05-16T01:04:02.254Z,0
2016-05-16T01:05:02.334Z,0
2016-05-16T01:06:02.150Z,0
2016-05-16T01:07:02.136Z,0
2016-05-16T01:08:01.968Z,0
2016-05-16T01:09:02.111Z,0
2016-05-16T01:10:02.114Z,0
2016-05-16T01:11:01.929Z,0
2016-05-16T01:12:02.056Z,0
2016-05-16T01:13:02.044Z,0
2016-05-16T01:14:02.047Z,0
2016-05-16T01:15:02.018Z,0
2016-05-16T01:16:01.833Z,0
2016-05-16T01:17:01.819Z,0
2016-05-16T01:18:01.947Z,0
2016-05-16T01:19:01.935Z,0
2016-05-16T01:20:01.781Z,0
2016-05-16T01:21:01.894Z,0
2016-05-16T01:22:01.864Z,0
2016-05-16T01:23:01.851Z,0
2016-05-16T01:24:01.855Z,0
2016-05-16T01:25:01.827Z,0
2016-05-16T01:26:01.813Z,0
2016-05-16T01:27:01.799Z,0
2016-05-16T01:28:01.772Z,0
2016-05-16T01:29:01.757Z,0
2016-05-16T01:30:01.746Z,0
2016-05-16T01:31:01.732Z,0
2016-05-16T01:32:01.704Z,0
2016-05-16T01:33:01.676Z,0
2016-05-16T01:34:01.679Z,0
2016-05-16T01:35:01.509Z,0
2016-05-16T01:36:01.636Z,0
2016-05-16T01:37:01.467Z,0
2016-05-16T01:38:01.596Z,0
2016-05-16T01:39:01.598Z,0
2016-05-16T01:40:01.553Z,0
2016-05-16T01:41:01.385Z,0
2016-05-16T01:42:01.372Z,0
2016-05-16T01:43:01.499Z,0
2016-05-16T01:44:01.503Z,0
2016-05-16T01:45:01.473Z,0
2016-05-16T01:46:01.303Z,0
2016-05-16T01:47:01.448Z,0
2016-05-16T01:48:01.419Z,0
2016-05-16T01:49:01.405Z,0
2016-05-16T01:50:01.394Z,0
2016-05-16T01:51:01.364Z,0
2016-05-16T01:52:01.382Z,0
2016-05-16T01:53:01.410Z,0
2016-05-16T01:54:01.266Z,0
2016-05-16T01:55:01.448Z,0
2016-05-16T01:56:01.477Z,0
2016-05-16T01:57:01.328Z,0
2016-05-16T01:58:01.501Z,0
2016-05-16T01:59:01.316Z,0
2016-05-16T02:00:01.473Z,0
2016-05-16T02:01:01.319Z,0
2016-05-16T02:02:01.469Z,0
2016-05-16T02:03:01.447Z,0
2016-05-16T02:04:01.439Z,0
2016-05-16T02:05:01.963Z,0
2016-05-16T02:06:01.408Z,0
2016-05-16T02:07:01.382Z,0
2016-05-16T02:08:01.372Z,0
2016-05-16T02:09:01.360Z,0
2016-05-16T02:10:01.349Z,0
2016-05-16T02:11:01.339Z,0
2016-05-16T02:12:01.311Z,0
2016-05-16T02:13:00.986Z,0
2016-05-16T02:14:01.271Z,0
2016-05-16T02:15:01.290Z,0
2016-05-16T02:16:01.262Z,0
2016-05-16T02:17:01.218Z,0
2016-05-16T02:18:01.220Z,0
2016-05-16T02:19:01.193Z,0
2016-05-16T02:20:01.117Z,0
2016-05-16T02:21:01.181Z,0
2016-05-16T02:22:01.138Z,0
2016-05-16T02:23:01.125Z,0
2016-05-16T02:24:01.111Z,0
2016-05-16T02:25:00.943Z,0
2016-05-16T02:26:01.070Z,0
2016-05-16T02:27:01.058Z,0
2016-05-16T02:28:01.044Z,0
2016-05-16T02:29:01.031Z,0
2016-05-16T02:30:01.019Z,0
2016-05-16T02:31:00.990Z,0
2016-05-16T02:32:00.961Z,0
2016-05-16T02:33:00.949Z,0
2016-05-16T02:34:00.654Z,0
2016-05-16T02:35:00.939Z,0
2016-05-16T02:36:00.738Z,0
2016-05-16T02:37:00.725Z,0
2016-05-16T02:38:00.555Z,0
2016-05-16T02:39:00.699Z,0
2016-05-16T02:40:00.827Z,0
2016-05-16T02:41:00.658Z,0
2016-05-16T02:42:00.629Z,0
2016-05-16T02:43:00.771Z,0
2016-05-16T02:44:00.603Z,0
2016-05-16T02:45:00.590Z,0
2016-05-16T02:46:00.718Z,0
2016-05-16T02:47:00.548Z,0
2016-05-16T02:48:00.896Z,0
2016-05-16T02:49:00.679Z,0
2016-05-16T02:50:00.666Z,0
2016-05-16T02:51:00.497Z,0
2016-05-16T02:52:00.625Z,0
2016-05-16T02:53:00.455Z,0
2016-05-16T02:54:00.459Z,0
2016-05-16T02:55:00.570Z,0
2016-05-16T02:56:00.401Z,0
2016-05-16T02:57:00.528Z,0
2016-05-16T02:58:00.531Z,0
2016-05-16T02:59:00.503Z,0
2016-05-16T03:00:00.490Z,0
2016-05-16T03:01:00.461Z,0
2016-05-16T03:02:00.448Z,0
2016-05-16T03:03:00.436Z,0
2016-05-16T03:04:00.407Z,0
2016-05-16T03:05:00.425Z,4
2016-05-16T03:06:00.380Z,4
2016-05-16T03:07:00.352Z,0
2016-05-16T03:08:00.355Z,0
2016-05-16T03:09:00.171Z,4
2016-05-16T03:10:00.157Z,4
2016-05-16T03:11:00.129Z,4
2016-05-16T03:12:00.116Z,4
2016-05-16T03:13:00.103Z,8
2016-05-16T03:14:00.230Z,4
2016-05-16T03:15:00.218Z,8
2016-05-16T03:16:00.204Z,4
2016-05-16T03:17:00.020Z,8
2016-05-16T03:17:59.851Z,8
2016-05-16T03:19:00.151Z,12
2016-05-16T03:19:59.996Z,12
2016-05-16T03:20:59.968Z,12
2016-05-16T03:22:00.096Z,12
2016-05-16T03:22:59.926Z,20
2016-05-16T03:23:59.914Z,16
2016-05-16T03:25:00.042Z,20
2016-05-16T03:26:00.013Z,20
2016-05-16T03:26:59.859Z,24
2016-05-16T03:27:59.987Z,24
2016-05-16T03:28:59.802Z,32
2016-05-16T03:29:59.961Z,32
2016-05-16T03:30:59.808Z,36
2016-05-16T03:31:59.920Z,40
2016-05-16T03:32:59.906Z,44
2016-05-16T03:33:59.894Z,52
2016-05-16T03:35:00.037Z,56
2016-05-16T03:35:59.868Z,60
2016-05-16T03:36:59.855Z,64
2016-05-16T03:37:59.827Z,68
2016-05-16T03:38:59.797Z,72
2016-05-16T03:39:59.472Z,80
2016-05-16T03:40:59.772Z,88
2016-05-16T03:41:59.743Z,96
2016-05-16T03:42:59.574Z,108
2016-05-16T03:43:59.827Z,116
2016-05-16T03:44:59.564Z,124
2016-05-16T03:45:59.676Z,132
2016-05-16T03:46:59.663Z,140
2016-05-16T03:47:59.651Z,148
2016-05-16T03:48:59.621Z,160
2016-05-16T03:50:00.093Z,168
2016-05-16T03:50:59.393Z,184
2016-05-16T03:51:59.567Z,192
2016-05-16T03:52:59.570Z,200
2016-05-16T03:53:59.385Z,212
2016-05-16T03:54:59.512Z,220
2016-05-16T03:55:59.187Z,228
2016-05-16T03:56:59.487Z,232
2016-05-16T03:57:59.318Z,244
2016-05-16T03:58:59.461Z,256
2016-05-16T03:59:59.276Z,272
2016-05-16T04:00:59.403Z,280
2016-05-16T04:01:59.234Z,288
2016-05-16T04:02:59.222Z,300
2016-05-16T04:03:59.365Z,320
2016-05-16T04:04:59.211Z,344
2016-05-16T04:05:59.199Z,364
2016-05-16T04:06:59.311Z,368
2016-05-16T04:07:59.330Z,372
2016-05-16T04:08:59.269Z,364
2016-05-16T04:09:59.256Z,348
2016-05-16T04:10:59.087Z,324
2016-05-16T04:11:59.215Z,308
2016-05-16T04:12:59.046Z,304
2016-05-16T04:13:59.032Z,304
2016-05-16T04:14:59.035Z,292
2016-05-16T04:15:59.007Z,296
2016-05-16T04:16:59.135Z,328
2016-05-16T04:17:59.137Z,356
2016-05-16T04:18:59.109Z,408
2016-05-16T04:19:59.079Z,444
2016-05-16T04:20:59.082Z,504
2016-05-16T04:21:58.898Z,564
2016-05-16T04:22:59.073Z,616
2016-05-16T04:23:59.356Z,672
2016-05-16T04:24:58.703Z,736
2016-05-16T04:25:58.831Z,820
2016-05-16T04:26:58.973Z,896
2016-05-16T04:27:58.789Z,960
2016-05-16T04:28:58.932Z,1016
2016-05-16T04:29:58.764Z,1052
2016-05-16T04:30:58.891Z,1064
2016-05-16T04:31:58.878Z,1072
2016-05-16T04:32:58.692Z,1084
2016-05-16T04:33:58.852Z,1120
2016-05-16T04:34:59.448Z,1168
2016-05-16T04:35:58.686Z,1192
2016-05-16T04:36:58.797Z,1212
2016-05-16T04:37:58.628Z,1236
2016-05-16T04:38:58.756Z,1292
2016-05-16T04:39:58.744Z,1316
2016-05-16T04:40:58.730Z,1332
2016-05-16T04:41:58.858Z,1332
2016-05-16T04:42:58.689Z,1392
2016-05-16T04:43:58.676Z,1416
2016-05-16T04:44:58.507Z,1388
2016-05-16T04:45:58.649Z,1348
2016-05-16T04:46:58.621Z,1408
2016-05-16T04:47:58.640Z,1504
2016-05-16T04:48:58.580Z,1556
2016-05-16T04:49:58.582Z,1608
2016-05-16T04:50:58.835Z,1672
2016-05-16T04:51:58.728Z,1748
2016-05-16T04:52:58.357Z,1792
2016-05-16T04:53:58.343Z,1828
2016-05-16T04:54:58.487Z,1816
2016-05-16T04:55:58.301Z,1804
2016-05-16T04:56:58.445Z,1788
2016-05-16T04:57:58.120Z,1784
2016-05-16T04:58:58.419Z,1832
2016-05-16T04:59:58.406Z,1876
2016-05-16T05:00:58.237Z,1884
2016-05-16T05:01:58.350Z,1928
2016-05-16T05:02:58.336Z,1960
2016-05-16T05:03:58.323Z,2004
2016-05-16T05:04:58.185Z,2036
2016-05-16T05:05:58.188Z,2144
2016-05-16T05:06:58.300Z,2252
2016-05-16T05:07:58.100Z,2316
2016-05-16T05:08:58.243Z,2404
2016-05-16T05:09:58.230Z,2460
2016-05-16T05:10:58.217Z,2520
2016-05-16T05:11:58.204Z,2480
2016-05-16T05:12:58.019Z,2444
2016-05-16T05:13:58.163Z,2388
2016-05-16T05:14:57.994Z,2436
2016-05-16T05:15:58.122Z,2540
2016-05-16T05:16:58.108Z,2576
2016-05-16T05:17:57.938Z,2548
2016-05-16T05:18:57.926Z,2476
2016-05-16T05:19:58.382Z,2360
2016-05-16T05:20:57.901Z,2308
2016-05-16T05:21:57.871Z,2288
2016-05-16T05:22:57.859Z,2256
2016-05-16T05:23:57.986Z,2280
2016-05-16T05:24:57.974Z,2328
2016-05-16T05:25:57.960Z,2476
2016-05-16T05:26:57.776Z,2456
2016-05-16T05:27:57.950Z,2400
2016-05-16T05:28:57.906Z,2336
2016-05-16T05:29:57.893Z,2368
2016-05-16T05:30:57.880Z,2348
2016-05-16T05:31:57.867Z,2296
2016-05-16T05:32:57.839Z,2208
2016-05-16T05:33:57.670Z,2140
2016-05-16T05:34:57.532Z,2060
2016-05-16T05:35:57.706Z,2092
2016-05-16T05:36:57.771Z,1988
2016-05-16T05:37:57.603Z,2080
2016-05-16T05:38:57.589Z,2048
2016-05-16T05:39:57.561Z,2128
2016-05-16T05:40:57.719Z,2160
2016-05-16T05:41:57.691Z,2196
2016-05-16T05:42:57.521Z,2240
2016-05-16T05:43:57.650Z,2300
2016-05-16T05:44:57.652Z,2340
2016-05-16T05:45:57.624Z,2392
2016-05-16T05:46:57.610Z,2432
2016-05-16T05:47:57.599Z,2584
2016-05-16T05:48:57.396Z,2828
2016-05-16T05:49:57.650Z,3120
2016-05-16T05:50:57.387Z,3244
2016-05-16T05:51:57.515Z,3080
2016-05-16T05:52:57.204Z,3092
2016-05-16T05:53:57.490Z,3212
2016-05-16T05:54:57.460Z,3256
2016-05-16T05:55:57.463Z,3132
2016-05-16T05:56:57.435Z,3304
2016-05-16T05:57:57.265Z,3328
2016-05-16T05:58:57.409Z,3428
2016-05-16T05:59:57.395Z,3600
2016-05-16T06:00:57.367Z,3732
2016-05-16T06:01:57.370Z,4104
2016-05-16T06:02:57.373Z,4148
2016-05-16T06:03:57.328Z,3788
2016-05-16T06:04:57.159Z,3824
2016-05-16T06:05:57.053Z,3828
2016-05-16T06:06:57.133Z,3784
2016-05-16T06:07:57.245Z,3860
2016-05-16T06:08:57.092Z,3612
2016-05-16T06:09:57.063Z,3488
2016-05-16T06:10:57.206Z,3532
2016-05-16T06:11:57.193Z,3732
2016-05-16T06:12:57.181Z,3856
2016-05-16T06:13:57.168Z,4108
2016-05-16T06:14:57.139Z,4400
2016-05-16T06:15:57.126Z,4240
2016-05-16T06:16:56.957Z,4348
2016-05-16T06:17:57.084Z,4360
2016-05-16T06:18:56.931Z,4144
2016-05-16T06:19:57.075Z,4352
2016-05-16T06:20:57.077Z,4780
2016-05-16T06:21:57.033Z,4936
2016-05-16T06:22:56.863Z,4936
2016-05-16T06:23:57.007Z,5252
2016-05-16T06:24:56.994Z,5476
2016-05-16T06:25:56.965Z,5736
2016-05-16T06:26:56.953Z,5772
2016-05-16T06:27:56.940Z,5644
2016-05-16T06:28:56.926Z,5588
2016-05-16T06:29:56.742Z,5380
2016-05-16T06:30:56.901Z,5620
2016-05-16T06:31:56.559Z,5708
2016-05-16T06:32:57.688Z,5520
2016-05-16T06:33:56.846Z,4888
2016-05-16T06:34:56.834Z,4560
2016-05-16T06:35:56.978Z,4444
2016-05-16T06:36:56.636Z,4448
2016-05-16T06:37:56.779Z,4096
2016-05-16T06:38:56.610Z,3984
2016-05-16T06:39:56.753Z,3812
2016-05-16T06:40:56.741Z,3644
2016-05-16T06:41:56.556Z,3460
2016-05-16T06:42:57.511Z,3296
2016-05-16T06:43:56.686Z,3156
2016-05-16T06:44:56.672Z,3212
2016-05-16T06:45:56.660Z,3664
2016-05-16T06:46:56.647Z,3828
2016-05-16T06:47:56.697Z,4564
2016-05-16T06:48:56.606Z,5612
2016-05-16T06:49:57.155Z,5756
2016-05-16T06:50:56.924Z,5876
2016-05-16T06:51:56.567Z,5928
2016-05-16T06:52:56.585Z,6100
2016-05-16T06:53:56.385Z,6428
2016-05-16T06:54:56.512Z,7032
2016-05-16T06:55:56.515Z,7552
2016-05-16T06:56:56.487Z,8264
2016-05-16T06:57:56.974Z,8128
2016-05-16T06:58:56.476Z,7456
2016-05-16T06:59:56.307Z,6876
2016-05-16T07:00:56.434Z,6480
2016-05-16T07:01:56.265Z,6372
2016-05-16T07:02:56.237Z,6336
2016-05-16T07:03:56.411Z,6336
2016-05-16T07:04:56.399Z,6760
2016-05-16T07:05:56.542Z,6976
2016-05-16T07:06:56.341Z,7352
2016-05-16T07:07:56.345Z,7844
2016-05-16T07:08:56.300Z,8560
2016-05-16T07:09:56.147Z,9512
2016-05-16T07:10:56.274Z,10188
2016-05-16T07:11:56.261Z,10736
2016-05-16T07:12:56.092Z,10324
2016-05-16T07:13:56.236Z,9468
2016-05-16T07:14:56.066Z,8860
2016-05-16T07:15:56.210Z,9136
2016-05-16T07:16:56.181Z,9568
2016-05-16T07:17:56.605Z,9876
2016-05-16T07:18:55.858Z,9988
2016-05-16T07:19:55.845Z,10216
2016-05-16T07:20:56.004Z,10828
2016-05-16T07:21:56.132Z,11276
2016-05-16T07:22:56.119Z,10652
2016-05-16T07:23:56.107Z,10276
2016-05-16T07:24:56.077Z,9004
2016-05-16T07:25:56.080Z,7540
2016-05-16T07:26:56.051Z,6644
2016-05-16T07:27:56.023Z,5700
2016-05-16T07:28:56.026Z,4684
2016-05-16T07:29:56.012Z,3876
2016-05-16T07:30:56.001Z,3408
2016-05-16T07:31:55.987Z,3268
2016-05-16T07:32:55.973Z,3244
2016-05-16T07:33:55.804Z,3360
2016-05-16T07:34:55.948Z,3612
2016-05-16T07:35:56.217Z,3816
2016-05-16T07:36:55.922Z,3920
2016-05-16T07:37:55.909Z,4048
2016-05-16T07:38:55.740Z,4264
2016-05-16T07:39:55.884Z,4540
2016-05-16T07:40:55.746Z,4944
2016-05-16T07:41:55.841Z,5480
2016-05-16T07:42:55.829Z,6176
2016-05-16T07:43:55.722Z,6856
2016-05-16T07:44:55.803Z,7312
2016-05-16T07:45:55.805Z,7320
2016-05-16T07:46:55.777Z,6580
2016-05-16T07:47:55.763Z,5976
2016-05-16T07:48:55.751Z,5916
2016-05-16T07:49:55.739Z,6152
2016-05-16T07:50:55.600Z,6428
2016-05-16T07:51:55.728Z,6656
2016-05-16T07:52:55.699Z,6980
2016-05-16T07:53:55.687Z,7532
2016-05-16T07:54:55.674Z,8408
2016-05-16T07:55:55.660Z,9300
2016-05-16T07:56:55.648Z,9180
2016-05-16T07:57:55.618Z,8344
2016-05-16T07:58:55.294Z,7556
2016-05-16T07:59:55.438Z,7072
2016-05-16T08:00:55.581Z,6492
2016-05-16T08:01:55.412Z,5720
2016-05-16T08:02:55.554Z,5452
2016-05-16T08:03:55.557Z,5556
2016-05-16T08:04:55.544Z,5392
2016-05-16T08:05:55.515Z,5428
2016-05-16T08:06:55.347Z,5780
2016-05-16T08:07:55.490Z,6372
2016-05-16T08:08:55.398Z,7112
2016-05-16T08:09:55.480Z,8136
2016-05-16T08:10:55.451Z,8860
2016-05-16T08:11:55.281Z,9348
2016-05-16T08:12:55.409Z,9740
2016-05-16T08:13:55.396Z,9768
2016-05-16T08:14:55.400Z,9812
2016-05-16T08:15:55.372Z,10008
2016-05-16T08:16:55.202Z,10116
2016-05-16T08:17:55.189Z,10780
2016-05-16T08:18:55.535Z,12260
2016-05-16T08:19:55.163Z,12756
2016-05-16T08:20:57.494Z,18272
2016-05-16T08:21:55.293Z,38592
2016-05-16T08:23:11.061Z,60448
2016-05-16T08:23:55.096Z,62432
2016-05-16T08:24:55.255Z,59680
2016-05-16T08:25:55.085Z,53728
2016-05-16T08:26:55.229Z,46624
2016-05-16T08:27:55.215Z,38080
2016-05-16T08:28:55.202Z,22048
2016-05-16T08:29:55.204Z,36704
2016-05-16T08:30:55.020Z,41344
2016-05-16T08:31:55.040Z,48160
2016-05-16T08:32:55.010Z,33696
2016-05-16T08:33:55.170Z,62656
2016-05-16T08:35:07.000Z,62112
2016-05-16T08:35:55.534Z,65600
2016-05-16T08:36:58.193Z,60192
2016-05-16T08:37:55.133Z,60320
2016-05-16T08:38:54.979Z,56800
2016-05-16T08:39:55.123Z,49376
2016-05-16T08:40:55.125Z,45568
2016-05-16T08:41:54.956Z,44576
2016-05-16T08:42:55.115Z,45440
2016-05-16T08:43:55.102Z,49248
2016-05-16T08:44:55.106Z,54496
2016-05-16T08:45:54.935Z,58720
2016-05-16T08:46:55.079Z,61536
2016-05-16T08:47:55.145Z,60576
2016-05-16T08:48:54.944Z,57376
2016-05-16T08:49:55.072Z,57184
2016-05-16T08:50:55.121Z,48992
2016-05-16T08:51:54.921Z,51808
2016-05-16T08:52:55.080Z,69760
2016-05-16T08:53:55.066Z,10096
2016-05-16T08:54:55.069Z,10832
2016-05-16T08:55:55.088Z,12420
2016-05-16T08:56:55.091Z,58912
2016-05-16T08:57:54.890Z,53536
2016-05-16T08:58:55.065Z,19296
2016-05-16T08:59:54.723Z,15940
2016-05-16T09:00:55.038Z,10528
2016-05-16T09:01:55.040Z,14840
2016-05-16T09:02:55.028Z,12028
2016-05-16T09:03:55.016Z,9844
2016-05-16T09:04:55.018Z,28896
2016-05-16T09:05:55.162Z,19616
2016-05-16T09:06:54.851Z,24512
2016-05-16T09:07:55.011Z,38752
2016-05-16T09:08:54.998Z,23584
2016-05-16T09:09:55.000Z,31616
2016-05-16T09:10:55.003Z,47392
2016-05-16T09:11:54.975Z,21120
2016-05-16T09:12:54.806Z,19712
2016-05-16T09:13:54.823Z,17824
2016-05-16T09:14:54.967Z,9952
2016-05-16T09:15:54.953Z,8344
2016-05-16T09:16:54.956Z,6348
2016-05-16T09:17:54.943Z,5328
2016-05-16T09:18:54.930Z,4912
2016-05-16T09:19:54.778Z,4600
2016-05-16T09:20:55.155Z,4808
2016-05-16T09:21:54.924Z,5448
2016-05-16T09:22:54.754Z,6412
2016-05-16T09:23:54.897Z,7560
2016-05-16T09:24:54.744Z,8640
2016-05-16T09:25:54.888Z,9204
2016-05-16T09:26:54.890Z,9716
2016-05-16T09:27:54.877Z,10680
2016-05-16T09:28:54.552Z,11024
2016-05-16T09:29:54.835Z,10616
2016-05-16T09:30:54.526Z,10776
2016-05-16T09:31:54.825Z,19040
2016-05-16T09:32:54.828Z,70528
2016-05-16T09:33:54.799Z,73728
2016-05-16T09:34:54.646Z,32480
2016-05-16T09:35:54.743Z,22944
2016-05-16T09:36:54.651Z,38368
2016-05-16T09:37:54.763Z,10028
2016-05-16T09:38:54.781Z,22272
2016-05-16T09:39:54.597Z,11756
2016-05-16T09:40:54.756Z,15880
2016-05-16T09:41:54.742Z,19040
2016-05-16T09:42:54.589Z,18688
2016-05-16T09:43:54.733Z,15800
2016-05-16T09:44:54.407Z,14344
2016-05-16T09:45:54.706Z,11148
2016-05-16T09:46:54.694Z,8620
2016-05-16T09:47:54.711Z,6968
2016-05-16T09:48:54.683Z,6516
2016-05-16T09:49:54.670Z,6904
2016-05-16T09:50:55.282Z,7360
2016-05-16T09:51:54.661Z,7888
2016-05-16T09:52:54.491Z,7904
2016-05-16T09:53:54.478Z,8732
2016-05-16T09:54:54.621Z,11836
2016-05-16T09:55:54.655Z,15420
2016-05-16T09:56:54.596Z,14400
2016-05-16T09:57:54.599Z,49216
2016-05-16T09:58:54.430Z,20512
2016-05-16T09:59:54.557Z,47232
2016-05-16T10:00:54.419Z,24928
2016-05-16T10:01:54.406Z,26688
2016-05-16T10:02:54.393Z,37920
2016-05-16T10:03:54.379Z,18048
2016-05-16T10:04:54.367Z,74272
2016-05-16T10:05:55.120Z,76192
2016-05-16T10:06:54.388Z,79904
2016-05-16T10:07:54.376Z,21760
2016-05-16T10:08:54.518Z,37536
2016-05-16T10:09:54.490Z,30784
2016-05-16T10:10:54.476Z,13848
2016-05-16T10:11:55.886Z,10892
2016-05-16T10:12:54.607Z,9240
2016-05-16T10:13:55.720Z,7760
2016-05-16T10:14:57.770Z,6252
2016-05-16T10:15:55.006Z,5696
2016-05-16T10:16:54.447Z,5716
2016-05-16T10:18:04.777Z,6408
2016-05-16T10:18:54.311Z,8124
2016-05-16T10:19:54.532Z,10104
2016-05-16T10:20:54.270Z,11872
2016-05-16T10:21:54.272Z,14524
2016-05-16T10:22:54.431Z,18560
2016-05-16T10:23:54.403Z,102432
2016-05-16T10:24:54.249Z,90624
2016-05-16T10:25:54.392Z,25952
2016-05-16T10:26:54.223Z,19040
2016-05-16T10:27:54.366Z,16448
2016-05-16T10:28:54.197Z,17408
2016-05-16T10:29:54.372Z,17696
2016-05-16T10:30:54.031Z,17952
2016-05-16T10:31:54.330Z,19648
2016-05-16T10:32:54.240Z,21408
2016-05-16T10:33:54.335Z,21440
2016-05-16T10:34:54.338Z,104128
2016-05-16T10:35:54.512Z,103200
2016-05-16T10:36:54.329Z,109632
2016-05-16T10:37:54.315Z,59808
2016-05-16T10:38:54.317Z,90976
2016-05-16T10:39:53.977Z,95424
2016-05-16T10:40:54.293Z,97280
2016-05-16T10:41:54.279Z,101248
2016-05-16T10:42:53.970Z,106656
2016-05-16T10:43:54.112Z,109408
2016-05-16T10:44:54.131Z,111360
2016-05-16T10:45:54.274Z,108480
2016-05-16T10:46:54.261Z,106720
2016-05-16T10:47:54.264Z,103424
2016-05-16T10:48:54.517Z,42304
2016-05-16T10:49:54.253Z,96000
2016-05-16T10:50:54.131Z,92768
2016-05-16T10:51:54.258Z,15476
2016-05-16T10:52:54.122Z,15116
2016-05-16T10:53:54.264Z,17824
2016-05-16T10:54:54.127Z,16480
2016-05-16T10:55:54.255Z,16288
2016-05-16T10:56:54.257Z,119648
2016-05-16T10:57:54.331Z,49536
2016-05-16T10:58:54.350Z,115840
2016-05-16T10:59:54.399Z,107936
2016-05-16T11:00:54.636Z,95392
2016-05-16T11:01:54.326Z,79520
2016-05-16T11:02:54.506Z,75232
2016-05-16T11:03:54.495Z,26176
2016-05-16T11:04:54.373Z,67136
2016-05-16T11:05:55.206Z,80544
2016-05-16T11:06:54.569Z,94112
2016-05-16T11:07:54.578Z,111552
2016-05-16T11:08:54.603Z,129248
2016-05-16T11:09:54.439Z,48672
2016-05-16T11:10:54.433Z,14324
2016-05-16T11:11:54.426Z,12680
2016-05-16T11:12:54.431Z,60256
2016-05-16T11:13:54.591Z,13980
2016-05-16T11:14:54.472Z,19360
2016-05-16T11:15:54.601Z,39584
2016-05-16T11:16:54.435Z,77792
2016-05-16T11:17:54.595Z,80480
2016-05-16T11:18:54.457Z,88736
2016-05-16T11:19:54.618Z,90176
2016-05-16T11:20:54.480Z,97120
2016-05-16T11:21:54.609Z,107552
2016-05-16T11:22:54.613Z,79552
2016-05-16T11:23:54.630Z,32992
2016-05-16T11:24:54.603Z,40096
2016-05-16T11:25:54.464Z,53760
2016-05-16T11:26:54.592Z,61408
2016-05-16T11:27:54.611Z,82432
2016-05-16T11:28:54.442Z,33376
2016-05-16T11:29:54.444Z,24960
2016-05-16T11:30:54.604Z,29280
2016-05-16T11:31:54.606Z,16544
2016-05-16T11:32:54.453Z,13112
2016-05-16T11:33:54.440Z,11316
2016-05-16T11:34:54.599Z,12880
2016-05-16T11:35:54.930Z,15616
2016-05-16T11:36:54.447Z,18208
2016-05-16T11:37:54.279Z,19808
2016-05-16T11:38:54.610Z,87808
2016-05-16T11:39:54.613Z,24928
2016-05-16T11:40:54.458Z,60064
2016-05-16T11:41:54.602Z,88704
2016-05-16T11:42:54.588Z,100672
2016-05-16T11:43:54.576Z,25472
2016-05-16T11:44:54.407Z,100960
2016-05-16T11:45:54.581Z,67712
2016-05-16T11:46:54.585Z,99072
2016-05-16T11:47:54.556Z,103168
2016-05-16T11:48:54.574Z,55872
2016-05-16T11:49:54.593Z,77536
2016-05-16T11:50:55.376Z,48864
2016-05-16T11:51:54.567Z,26304
2016-05-16T11:52:54.553Z,36320
2016-05-16T11:53:54.400Z,60704
2016-05-16T11:54:54.590Z,109632
2016-05-16T11:55:54.578Z,29728
2016-05-16T11:56:54.548Z,30848
2016-05-16T11:57:54.395Z,24064
2016-05-16T11:58:54.444Z,19072
2016-05-16T11:59:54.604Z,16928
2016-05-16T12:00:54.559Z,17120
2016-05-16T12:01:54.562Z,20800
2016-05-16T12:02:54.425Z,85312
2016-05-16T12:03:54.552Z,19168
2016-05-16T12:04:54.539Z,17024
2016-05-16T12:05:54.479Z,16032
2016-05-16T12:06:54.544Z,15108
2016-05-16T12:07:54.531Z,14328
2016-05-16T12:08:54.581Z,16160
2016-05-16T12:09:54.536Z,29824
2016-05-16T12:10:54.539Z,16512
2016-05-16T12:11:54.542Z,22304
2016-05-16T12:12:54.357Z,22528
2016-05-16T12:13:54.391Z,19680
2016-05-16T12:14:54.519Z,18400
2016-05-16T12:15:54.522Z,28448
2016-05-16T12:16:54.509Z,36864
2016-05-16T12:17:54.512Z,25408
2016-05-16T12:18:54.389Z,27584
2016-05-16T12:19:54.345Z,107328
2016-05-16T12:20:54.190Z,66912
2016-05-16T12:21:54.318Z,40256
2016-05-16T12:22:54.322Z,75488
2016-05-16T12:23:54.496Z,23072
2016-05-16T12:24:54.484Z,50304
2016-05-16T12:25:54.376Z,14976
2016-05-16T12:26:54.332Z,12940
2016-05-16T12:27:54.460Z,13848
2016-05-16T12:28:54.478Z,15528
2016-05-16T12:29:54.137Z,14796
2016-05-16T12:30:54.312Z,12412
2016-05-16T12:31:54.128Z,10104
2016-05-16T12:32:54.458Z,9132
2016-05-16T12:33:54.305Z,8540
2016-05-16T12:34:54.432Z,9900
2016-05-16T12:35:54.856Z,12928
2016-05-16T12:36:54.421Z,16800
2016-05-16T12:37:54.269Z,17856
2016-05-16T12:38:54.412Z,16928
2016-05-16T12:39:54.399Z,16640
2016-05-16T12:40:54.105Z,15240
2016-05-16T12:41:54.388Z,14324
2016-05-16T12:42:54.219Z,15324
2016-05-16T12:43:54.393Z,16192
2016-05-16T12:44:54.380Z,17248
2016-05-16T12:45:54.212Z,66400
2016-05-16T12:46:54.355Z,23584
2016-05-16T12:47:54.217Z,28704
2016-05-16T12:48:54.735Z,27744
2016-05-16T12:49:54.348Z,30304
2016-05-16T12:50:54.396Z,39200
2016-05-16T12:51:54.197Z,42240
2016-05-16T12:52:54.323Z,27840
2016-05-16T12:53:54.343Z,79392
2016-05-16T12:54:54.330Z,18400
2016-05-16T12:55:54.317Z,16576
2016-05-16T12:56:54.350Z,21632
2016-05-16T12:57:54.322Z,19360
2016-05-16T12:58:54.309Z,20640
2016-05-16T12:59:54.281Z,21408
2016-05-16T13:00:54.284Z,60896
2016-05-16T13:01:54.270Z,25248
2016-05-16T13:02:54.273Z,43328
2016-05-16T13:03:54.260Z,93312
2016-05-16T13:04:54.106Z,101440
2016-05-16T13:05:54.422Z,44416
2016-05-16T13:06:54.253Z,107424
2016-05-16T13:07:54.255Z,79040
2016-05-16T13:08:54.242Z,111744
2016-05-16T13:09:54.230Z,64192
2016-05-16T13:10:54.419Z,51104
2016-05-16T13:11:54.250Z,70848
2016-05-16T13:12:54.221Z,40256
2016-05-16T13:13:54.240Z,27392
2016-05-16T13:14:54.211Z,55744
2016-05-16T13:15:54.199Z,45280
2016-05-16T13:16:54.046Z,45184
2016-05-16T13:17:53.891Z,35520
2016-05-16T13:18:54.191Z,22144
2016-05-16T13:19:54.053Z,22656
2016-05-16T13:20:54.056Z,28192
2016-05-16T13:21:54.199Z,26880
2016-05-16T13:22:54.171Z,27552
2016-05-16T13:23:54.017Z,19616
2016-05-16T13:24:54.160Z,17824
2016-05-16T13:25:54.163Z,16128
2016-05-16T13:26:54.165Z,15552
2016-05-16T13:27:54.168Z,23360
2016-05-16T13:28:54.139Z,61600
2016-05-16T13:29:54.143Z,20832